createdAt,value
2022-09-25T00:00:54.321Z,16.05
2022-09-25T00:03:25.224Z,15.10
2022-09-25T00:05:55.741Z,15.65
2022-09-25T00:08:24.026Z,14.75
2022-09-25T00:10:52.947Z,15.07
2022-09-25T00:13:22.528Z,16.92
2022-09-25T00:15:52.295Z,15.15
2022-09-25T00:18:42.257Z,14.13
2022-09-25T00:21:12.470Z,16.77
2022-09-25T00:23:41.272Z,15.43
2022-09-25T00:26:10.441Z,18.00
2022-09-25T00:28:39.125Z,15.60
2022-09-25T00:31:08.097Z,17.90
2022-09-25T00:33:37.137Z,16.77
2022-09-25T00:36:06.838Z,17.30
2022-09-25T00:38:37.062Z,19.13
2022-09-25T00:41:06.034Z,20.42
2022-09-25T00:43:37.543Z,21.83
2022-09-25T00:46:08.715Z,23.33
2022-09-25T00:48:37.567Z,25.45
2022-09-25T00:51:06.754Z,24.90
2022-09-25T00:53:40.740Z,25.90
2022-09-25T00:56:11.747Z,24.17
2022-09-25T00:58:41.893Z,27.02
2022-09-25T01:01:10.930Z,25.85
2022-09-25T01:03:40.144Z,23.25
2022-09-25T01:06:10.328Z,21.55
2022-09-25T01:08:40.960Z,25.58
2022-09-25T01:11:09.495Z,27.23
2022-09-25T01:13:38.133Z,27.75
2022-09-25T01:16:10.356Z,26.52
2022-09-25T01:18:45.076Z,25.77
2022-09-25T01:21:20.848Z,26.77
2022-09-25T01:24:06.678Z,31.23
2022-09-25T01:26:44.228Z,25.13
2022-09-25T01:29:16.205Z,25.85
2022-09-25T01:31:47.094Z,27.40
2022-09-25T01:34:16.728Z,23.00
2022-09-25T01:36:49.035Z,22.63
2022-09-25T01:39:21.640Z,24.77
2022-09-25T01:41:53.238Z,23.05
2022-09-25T01:44:25.886Z,23.05
2022-09-25T01:46:55.870Z,21.83
2022-09-25T01:49:29.021Z,23.63
2022-09-25T01:51:58.405Z,23.58
2022-09-25T01:54:31.465Z,23.17
2022-09-25T01:57:03.310Z,21.50
2022-09-25T01:59:37.746Z,22.88
2022-09-25T02:02:09.192Z,24.30
2022-09-25T02:04:39.170Z,24.05
2022-09-25T02:07:09.128Z,22.23
2022-09-25T02:09:39.239Z,20.98
2022-09-25T02:12:10.763Z,23.77
2022-09-25T02:14:43.480Z,23.30
2022-09-25T02:17:12.855Z,23.92
2022-09-25T02:19:59.110Z,24.45
2022-09-25T02:22:30.668Z,22.92
2022-09-25T02:25:02.492Z,25.95
2022-09-25T02:27:30.780Z,24.98
2022-09-25T02:30:00.493Z,22.30
2022-09-25T02:32:32.089Z,26.23
2022-09-25T02:35:00.784Z,27.58
2022-09-25T02:37:29.807Z,25.85
2022-09-25T02:39:59.310Z,28.17
2022-09-25T02:42:33.733Z,22.98
2022-09-25T02:45:08.457Z,24.27
2022-09-25T02:47:37.723Z,29.73
2022-09-25T02:50:10.541Z,26.40
2022-09-25T02:52:44.896Z,27.88
2022-09-25T02:55:17.114Z,28.60
2022-09-25T02:57:47.202Z,27.52
2022-09-25T03:00:16.944Z,24.23
2022-09-25T03:02:52.169Z,28.67
2022-09-25T03:05:22.175Z,27.42
2022-09-25T03:08:08.617Z,26.98
2022-09-25T03:10:37.821Z,31.38
2022-09-25T03:13:15.916Z,33.78
2022-09-25T03:15:46.702Z,29.95
2022-09-25T03:18:15.129Z,33.35
2022-09-25T03:20:43.436Z,33.40
2022-09-25T03:23:12.053Z,32.33
2022-09-25T03:25:41.970Z,34.25
2022-09-25T03:28:12.834Z,33.88
2022-09-25T03:30:41.578Z,30.77
2022-09-25T03:33:11.362Z,32.05
2022-09-25T03:35:39.710Z,36.60
2022-09-25T03:38:10.474Z,30.77
2022-09-25T03:40:38.885Z,31.40
2022-09-25T03:45:34.471Z,28.13
2022-09-25T03:48:03.009Z,34.35
2022-09-25T03:50:32.602Z,32.40
2022-09-25T03:53:00.863Z,31.98
2022-09-25T03:55:29.161Z,33.58
2022-09-25T03:57:57.451Z,32.03
2022-09-25T04:00:26.221Z,28.67
2022-09-25T04:02:54.581Z,31.67
2022-09-25T04:05:22.881Z,28.30
2022-09-25T04:07:52.504Z,28.90
2022-09-25T04:10:20.788Z,28.58
2022-09-25T04:12:49.805Z,28.23
2022-09-25T04:15:18.102Z,28.50
2022-09-25T04:17:46.797Z,28.83
2022-09-25T04:20:15.103Z,30.30
2022-09-25T04:22:43.447Z,30.85
2022-09-25T04:25:14.173Z,29.83
2022-09-25T04:27:43.774Z,28.20
2022-09-25T04:30:12.411Z,28.27
2022-09-25T04:33:06.916Z,28.25
2022-09-25T04:35:35.366Z,29.40
2022-09-25T04:38:03.981Z,28.98
2022-09-25T04:40:34.404Z,26.45
2022-09-25T04:43:05.284Z,21.95
2022-09-25T04:45:34.993Z,25.40
2022-09-25T04:48:03.502Z,25.70
2022-09-25T04:50:32.324Z,25.10
2022-09-25T04:53:03.754Z,26.42
2022-09-25T04:55:33.384Z,23.98
2022-09-25T04:58:02.572Z,24.20
2022-09-25T05:00:31.842Z,24.40
2022-09-25T05:03:00.260Z,24.00
2022-09-25T05:05:30.460Z,23.60
2022-09-25T05:07:59.647Z,23.60
2022-09-25T05:10:28.866Z,23.92
2022-09-25T05:12:59.093Z,23.00
2022-09-25T05:15:28.039Z,24.13
2022-09-25T05:18:01.699Z,22.33
2022-09-25T05:20:30.045Z,22.75
2022-09-25T05:22:58.481Z,22.10
2022-09-25T05:25:27.290Z,23.80
2022-09-25T05:27:58.188Z,22.58
2022-09-25T05:30:28.553Z,23.30
2022-09-25T05:32:58.769Z,23.92
2022-09-25T05:35:28.420Z,24.33
2022-09-25T05:37:57.065Z,20.73
2022-09-25T05:40:25.619Z,22.17
2022-09-25T05:42:55.118Z,21.02
2022-09-25T05:45:24.183Z,23.05
2022-09-25T05:48:02.874Z,22.15
2022-09-25T05:50:32.419Z,22.90
2022-09-25T05:53:01.249Z,22.98
2022-09-25T05:55:29.955Z,23.88
2022-09-25T05:58:02.390Z,21.70
2022-09-25T06:00:32.528Z,24.52
2022-09-25T06:03:02.417Z,23.63
2022-09-25T06:05:31.003Z,21.33
2022-09-25T06:07:59.289Z,22.25
2022-09-25T06:10:27.933Z,24.23
2022-09-25T06:12:58.759Z,22.30
2022-09-25T06:15:27.736Z,24.73
2022-09-25T06:17:56.068Z,21.73
2022-09-25T06:20:25.867Z,24.05
2022-09-25T06:22:54.501Z,21.23
2022-09-25T06:25:23.651Z,21.88
2022-09-25T06:27:53.825Z,27.02
2022-09-25T06:30:22.235Z,21.33
2022-09-25T06:32:51.433Z,22.92
2022-09-25T06:35:19.717Z,23.45
2022-09-25T06:37:49.328Z,22.20
2022-09-25T06:40:17.809Z,25.58
2022-09-25T06:42:46.236Z,21.73
2022-09-25T06:45:14.528Z,24.40
2022-09-25T06:47:42.816Z,25.23
2022-09-25T06:50:12.250Z,23.42
2022-09-25T06:52:43.275Z,26.30
2022-09-25T06:55:13.148Z,23.73
2022-09-25T06:57:41.433Z,24.13
2022-09-25T07:00:10.362Z,23.98
2022-09-25T07:02:56.322Z,24.80
2022-09-25T07:05:24.696Z,28.02
2022-09-25T07:07:53.008Z,26.80
2022-09-25T07:10:22.615Z,26.42
2022-09-25T07:12:51.053Z,28.63
2022-09-25T07:15:19.549Z,28.80
2022-09-25T07:17:48.008Z,28.95
2022-09-25T07:20:16.703Z,27.30
2022-09-25T07:22:45.211Z,29.23
2022-09-25T07:25:14.158Z,26.75
2022-09-25T07:27:43.883Z,24.52
2022-09-25T07:30:12.590Z,27.23
2022-09-25T07:32:40.919Z,28.65
2022-09-25T07:35:09.611Z,25.33
2022-09-25T07:37:38.317Z,32.88
2022-09-25T07:40:07.131Z,29.42
2022-09-25T07:42:35.491Z,28.58
2022-09-25T07:45:05.277Z,24.42
2022-09-25T07:47:33.599Z,34.22
2022-09-25T07:50:01.865Z,26.48
2022-09-25T07:52:31.487Z,29.88
2022-09-25T07:54:59.806Z,25.45
2022-09-25T07:57:28.130Z,25.73
2022-09-25T07:59:56.389Z,30.15
2022-09-25T08:02:26.182Z,26.83
2022-09-25T08:04:54.607Z,25.15
2022-09-25T08:07:22.913Z,27.63
2022-09-25T08:09:51.201Z,24.25
2022-09-25T08:12:19.804Z,25.40
2022-09-25T08:14:48.094Z,26.67
2022-09-25T08:17:16.369Z,28.50
2022-09-25T08:19:45.971Z,24.42
2022-09-25T08:22:14.259Z,24.67
2022-09-25T08:24:42.536Z,26.10
2022-09-25T08:27:10.873Z,25.60
2022-09-25T08:29:39.318Z,26.55
2022-09-25T08:32:07.602Z,24.88
2022-09-25T08:34:41.024Z,24.52
2022-09-25T08:37:11.935Z,27.33
2022-09-25T08:39:40.231Z,27.40
2022-09-25T08:42:08.589Z,23.35
2022-09-25T08:44:38.979Z,23.63
2022-09-25T08:47:28.648Z,24.85
2022-09-25T08:50:00.168Z,23.25
2022-09-25T08:52:30.992Z,22.92
2022-09-25T08:54:59.336Z,23.15
2022-09-25T08:57:34.884Z,23.80
2022-09-25T09:00:04.089Z,23.77
2022-09-25T09:02:38.138Z,23.13
2022-09-25T09:05:08.976Z,24.00
2022-09-25T09:07:40.626Z,21.85
2022-09-25T09:10:10.277Z,22.65
2022-09-25T09:12:40.256Z,22.83
2022-09-25T09:15:20.388Z,22.15
2022-09-25T09:17:48.681Z,19.13
2022-09-25T09:20:18.855Z,18.13
2022-09-25T09:22:50.739Z,17.95
2022-09-25T09:25:29.078Z,18.08
2022-09-25T09:28:07.526Z,20.08
2022-09-25T09:30:38.126Z,18.98
2022-09-25T09:33:21.327Z,19.38
2022-09-25T09:35:56.309Z,18.15
2022-09-25T09:38:31.328Z,17.90
2022-09-25T09:41:13.889Z,26.67
2022-09-25T09:43:46.460Z,18.48
2022-09-25T09:46:21.454Z,23.58
2022-09-25T09:48:55.244Z,19.67
2022-09-25T09:51:25.957Z,22.35
2022-09-25T09:53:57.805Z,22.33
2022-09-25T09:56:27.595Z,21.17
2022-09-25T09:58:57.127Z,22.40
2022-09-25T10:01:40.680Z,21.05
2022-09-25T10:04:11.172Z,21.23
2022-09-25T10:06:41.698Z,21.27
2022-09-25T10:09:11.715Z,20.27
2022-09-25T10:11:42.150Z,21.42
2022-09-25T10:14:13.634Z,19.30
2022-09-25T10:16:42.113Z,21.40
2022-09-25T10:19:13.378Z,18.48
2022-09-25T10:21:42.657Z,20.45
2022-09-25T10:24:12.343Z,21.75
2022-09-25T10:26:41.606Z,20.98
2022-09-25T10:29:27.117Z,23.52
2022-09-25T10:31:59.288Z,18.98
2022-09-25T10:34:29.514Z,18.05
2022-09-25T10:36:57.790Z,20.38
2022-09-25T10:39:44.260Z,20.00
2022-09-25T10:42:30.302Z,18.92
2022-09-25T10:44:58.587Z,21.85
2022-09-25T10:47:49.350Z,20.17
2022-09-25T10:50:20.093Z,21.80
2022-09-25T10:52:50.470Z,27.98
2022-09-25T10:55:28.331Z,22.42
2022-09-25T10:58:04.327Z,22.98
2022-09-25T11:00:36.232Z,19.85
2022-09-25T11:03:06.126Z,16.17
2022-09-25T11:05:35.763Z,16.92
2022-09-25T11:08:05.376Z,18.08
2022-09-25T11:10:36.269Z,16.00
2022-09-25T11:13:08.815Z,16.83
2022-09-25T11:15:38.960Z,19.60
2022-09-25T11:18:07.329Z,16.42
2022-09-25T11:20:36.715Z,16.30
2022-09-25T11:23:14.895Z,16.88
2022-09-25T11:25:47.723Z,13.32
2022-09-25T11:28:19.331Z,13.95
2022-09-25T11:30:51.457Z,12.60
2022-09-25T11:33:24.511Z,10.10
2022-09-25T11:35:54.412Z,15.65
2022-09-25T11:38:41.294Z,14.02
2022-09-25T11:41:15.971Z,16.80
2022-09-25T11:43:52.048Z,14.23
2022-09-25T11:46:26.795Z,10.23
2022-09-25T11:49:00.751Z,14.88
2022-09-25T11:51:39.131Z,11.80
2022-09-25T11:54:32.796Z,11.05
2022-09-25T11:57:05.513Z,17.40
2022-09-25T11:59:39.077Z,9.88
2022-09-25T12:02:16.252Z,13.40
2022-09-25T12:04:59.518Z,11.85
2022-09-25T12:07:40.494Z,9.07
2022-09-25T12:10:25.599Z,7.72
2022-09-25T12:12:59.458Z,13.88
2022-09-25T12:15:32.560Z,15.93
2022-09-25T12:18:07.612Z,12.70
2022-09-25T12:20:39.734Z,9.00
2022-09-25T12:23:16.084Z,12.68
2022-09-25T12:25:54.236Z,11.15
2022-09-25T12:28:29.319Z,10.77
2022-09-25T12:31:05.727Z,8.82
2022-09-25T12:33:38.706Z,8.48
2022-09-25T12:36:10.500Z,8.75
2022-09-25T12:38:44.096Z,9.90
2022-09-25T12:41:17.893Z,9.60
2022-09-25T12:43:51.936Z,6.82
2022-09-25T12:46:24.060Z,9.52
2022-09-25T12:48:53.954Z,9.55
2022-09-25T12:51:24.167Z,6.57
2022-09-25T12:53:54.979Z,9.02
2022-09-25T12:56:26.946Z,8.32
2022-09-25T12:59:04.521Z,10.75
2022-09-25T13:01:37.897Z,9.18
2022-09-25T13:04:33.850Z,15.27
2022-09-25T13:07:05.863Z,7.55
2022-09-25T13:09:36.689Z,8.05
2022-09-25T13:12:06.661Z,6.35
2022-09-25T13:14:39.784Z,7.57
2022-09-25T13:17:11.126Z,7.80
2022-09-25T13:19:39.721Z,9.02
2022-09-25T13:22:10.207Z,9.07
2022-09-25T13:24:40.653Z,6.97
2022-09-25T13:27:14.705Z,7.97
2022-09-25T13:29:44.687Z,10.02
2022-09-25T13:32:16.219Z,10.52
2022-09-25T13:34:44.887Z,8.48
2022-09-25T13:37:13.996Z,8.00
2022-09-25T13:40:01.075Z,7.93
2022-09-25T13:42:30.895Z,9.90
2022-09-25T13:45:07.591Z,7.07
2022-09-25T13:47:53.954Z,7.57
2022-09-25T13:50:26.913Z,9.85
2022-09-25T13:53:20.524Z,9.50
2022-09-25T13:56:03.763Z,8.18
2022-09-25T13:58:33.069Z,10.90
2022-09-25T14:01:03.899Z,8.32
2022-09-25T14:03:44.013Z,6.15
2022-09-25T14:06:13.799Z,8.45
2022-09-25T14:08:43.217Z,9.68
2022-09-25T14:11:14.896Z,9.80
2022-09-25T14:13:46.777Z,11.73
2022-09-25T14:16:20.574Z,10.70
2022-09-25T14:18:54.167Z,8.63
2022-09-25T14:21:24.011Z,7.13
2022-09-25T14:23:53.274Z,16.98
2022-09-25T14:26:23.247Z,7.43
2022-09-25T14:28:52.036Z,8.45
2022-09-25T14:31:29.634Z,4.82
2022-09-25T14:34:28.253Z,7.47
2022-09-25T14:37:03.250Z,8.90
2022-09-25T14:39:38.759Z,6.80
2022-09-25T14:42:19.566Z,6.63
2022-09-25T14:44:57.612Z,7.13
2022-09-25T14:47:30.317Z,7.18
2022-09-25T14:49:59.730Z,6.43
2022-09-25T14:52:31.991Z,5.05
2022-09-25T14:55:01.150Z,6.70
2022-09-25T14:57:32.291Z,8.90
2022-09-25T15:00:02.635Z,6.22
2022-09-25T15:02:33.898Z,6.70
2022-09-25T15:05:17.911Z,5.38
2022-09-25T15:07:47.272Z,6.90
2022-09-25T15:10:26.035Z,8.02
2022-09-25T15:12:54.889Z,7.22
2022-09-25T15:15:23.441Z,8.02
2022-09-25T15:17:54.493Z,6.07
2022-09-25T15:20:23.714Z,6.85
2022-09-25T15:22:54.702Z,6.95
2022-09-25T15:25:24.620Z,7.95
2022-09-25T15:27:52.966Z,6.43
2022-09-25T15:30:21.354Z,8.18
2022-09-25T15:32:57.101Z,11.27
2022-09-25T15:35:30.987Z,6.60
2022-09-25T15:38:05.433Z,9.55
2022-09-25T15:40:34.717Z,5.53
2022-09-25T15:43:03.192Z,7.82
2022-09-25T15:45:39.265Z,6.30
2022-09-25T15:48:13.200Z,4.97
2022-09-25T15:50:45.663Z,5.65
2022-09-25T15:53:20.273Z,6.10
2022-09-25T15:55:48.758Z,6.07
2022-09-25T15:58:18.779Z,7.88
2022-09-25T16:01:15.354Z,8.25
2022-09-25T16:04:05.413Z,8.32
2022-09-25T16:06:41.030Z,55.03
2022-09-25T16:09:10.676Z,44.85
2022-09-25T16:11:39.638Z,12.20
2022-09-25T16:14:20.827Z,12.02
2022-09-25T16:16:49.965Z,5.80
2022-09-25T16:19:22.714Z,6.28
2022-09-25T16:21:52.817Z,8.88
2022-09-25T16:24:21.756Z,7.43
2022-09-25T16:26:55.893Z,6.38
2022-09-25T16:29:25.409Z,6.93
2022-09-25T16:31:56.132Z,8.00
2022-09-25T16:34:27.333Z,4.57
2022-09-25T16:36:58.525Z,11.13
2022-09-25T16:39:28.110Z,7.20
2022-09-25T16:41:57.072Z,7.57
2022-09-25T16:44:36.849Z,4.90
2022-09-25T16:47:16.507Z,6.38
2022-09-25T16:49:45.683Z,6.95
2022-09-25T16:52:21.342Z,5.00
2022-09-25T16:54:53.247Z,6.60
2022-09-25T16:57:22.466Z,5.93
2022-09-25T16:59:50.864Z,6.07
2022-09-25T17:02:24.794Z,7.00
2022-09-25T17:04:53.277Z,5.07
2022-09-25T17:07:23.159Z,7.38
2022-09-25T17:09:51.977Z,6.05
2022-09-25T17:12:22.131Z,5.80
2022-09-25T17:14:50.886Z,6.82
2022-09-25T17:17:21.767Z,8.00
2022-09-25T17:19:50.970Z,5.25
2022-09-25T17:22:19.767Z,10.38
2022-09-25T17:24:49.585Z,6.07
2022-09-25T17:27:18.089Z,6.78
2022-09-25T17:29:48.162Z,7.40
2022-09-25T17:32:17.577Z,8.43
2022-09-25T17:34:47.062Z,11.23
2022-09-25T17:37:15.748Z,12.85
2022-09-25T17:39:44.291Z,13.02
2022-09-25T17:42:14.215Z,11.05
2022-09-25T17:44:43.695Z,10.18
2022-09-25T17:47:13.132Z,11.27
2022-09-25T17:49:41.883Z,9.48
2022-09-25T17:52:11.157Z,19.55
2022-09-25T17:54:39.435Z,21.80
2022-09-25T17:57:07.740Z,14.13
2022-09-25T17:59:37.667Z,11.80
2022-09-25T18:02:06.019Z,9.98
2022-09-25T18:04:34.297Z,9.20
2022-09-25T18:07:03.872Z,10.20
2022-09-25T18:09:32.158Z,8.45
2022-09-25T18:12:00.426Z,8.07
2022-09-25T18:14:28.702Z,8.98
2022-09-25T18:16:58.513Z,8.95
2022-09-25T18:19:44.579Z,8.82
2022-09-25T18:22:19.190Z,8.20
2022-09-25T18:24:47.791Z,8.32
2022-09-25T18:27:17.035Z,9.93
2022-09-25T18:29:46.170Z,11.25
2022-09-25T18:32:16.142Z,9.57
2022-09-25T18:34:44.691Z,10.05
2022-09-25T18:37:13.063Z,8.25
2022-09-25T18:39:41.479Z,12.05
2022-09-25T18:42:09.787Z,9.88
2022-09-25T18:44:42.683Z,12.43
2022-09-25T18:47:11.578Z,15.10
2022-09-25T18:49:43.025Z,10.38
2022-09-25T18:52:11.521Z,10.23
2022-09-25T18:54:41.978Z,11.23
2022-09-25T18:57:10.504Z,9.85
2022-09-25T18:59:38.781Z,10.15
2022-09-25T19:02:07.621Z,10.85
2022-09-25T19:04:36.380Z,11.05
2022-09-25T19:07:06.056Z,9.70
2022-09-25T19:09:34.357Z,9.73
2022-09-25T19:12:03.195Z,7.13
2022-09-25T19:14:31.470Z,10.40
2022-09-25T19:16:59.735Z,10.27
2022-09-25T19:19:34.883Z,8.95
2022-09-25T19:22:03.283Z,13.40
2022-09-25T19:24:36.421Z,10.93
2022-09-25T19:27:05.188Z,6.45
2022-09-25T19:29:35.734Z,7.25
2022-09-25T19:32:05.234Z,9.10
2022-09-25T19:34:33.786Z,6.25
2022-09-25T19:37:02.196Z,8.35
2022-09-25T19:39:30.515Z,9.57
2022-09-25T19:42:00.119Z,9.30
2022-09-25T19:44:32.115Z,6.82
2022-09-25T19:47:00.377Z,10.23
2022-09-25T19:49:28.695Z,16.65
2022-09-25T19:51:56.983Z,8.30
2022-09-25T19:54:25.412Z,9.68
2022-09-25T19:56:53.695Z,11.43
2022-09-25T19:59:23.332Z,10.38
2022-09-25T20:01:53.350Z,6.20
2022-09-25T20:04:21.848Z,13.15
2022-09-25T20:06:50.159Z,8.40
2022-09-25T20:09:18.535Z,12.77
2022-09-25T20:11:47.041Z,7.20
2022-09-25T20:14:15.324Z,7.38
2022-09-25T20:16:44.944Z,10.45
2022-09-25T20:19:13.308Z,9.75
2022-09-25T20:21:41.804Z,12.05
2022-09-25T20:24:10.456Z,12.25
2022-09-25T20:26:39.085Z,14.43
2022-09-25T20:29:09.012Z,15.38
2022-09-25T20:31:38.458Z,10.30
2022-09-25T20:34:08.602Z,9.07
2022-09-25T20:36:39.005Z,8.13
2022-09-25T20:39:07.754Z,10.25
2022-09-25T20:41:36.449Z,9.50
2022-09-25T20:44:05.500Z,8.65
2022-09-25T20:46:33.916Z,6.50
2022-09-25T20:49:03.487Z,7.20
2022-09-25T20:51:35.145Z,7.35
2022-09-25T20:54:04.182Z,9.48
2022-09-25T20:56:33.212Z,10.95
2022-09-25T20:59:01.966Z,10.23
2022-09-25T21:01:31.796Z,9.43
2022-09-25T21:04:01.164Z,9.52
2022-09-25T21:06:30.671Z,12.25
2022-09-25T21:09:01.243Z,13.38
2022-09-25T21:11:30.175Z,13.13
2022-09-25T21:13:59.542Z,10.13
2022-09-25T21:16:28.566Z,6.30
2022-09-25T21:18:57.433Z,9.23
2022-09-25T21:21:26.668Z,9.15
2022-09-25T21:23:55.947Z,10.13
2022-09-25T21:26:27.288Z,8.77
2022-09-25T21:28:56.598Z,10.13
2022-09-25T21:31:25.848Z,11.15
2022-09-25T21:33:54.642Z,10.63
2022-09-25T21:36:23.315Z,10.32
2022-09-25T21:38:51.984Z,8.60
2022-09-25T21:41:20.960Z,9.25
2022-09-25T21:43:53.970Z,11.63
2022-09-25T21:46:22.386Z,22.38
2022-09-25T21:48:51.633Z,13.95
2022-09-25T21:51:20.622Z,12.65
2022-09-25T21:53:48.986Z,11.80
2022-09-25T21:56:18.340Z,13.75
2022-09-25T21:58:47.243Z,10.85
2022-09-25T22:01:18.319Z,13.65
2022-09-25T22:03:48.021Z,10.60
2022-09-25T22:06:17.086Z,11.80
2022-09-25T22:08:46.220Z,8.52
2022-09-25T22:11:14.545Z,10.32
2022-09-25T22:13:43.809Z,10.02
2022-09-25T22:16:14.225Z,11.13
2022-09-25T22:18:44.631Z,12.70
2022-09-25T22:21:13.564Z,14.45
2022-09-25T22:23:41.842Z,10.18
2022-09-25T22:26:10.314Z,11.52
2022-09-25T22:28:38.972Z,11.85
2022-09-25T22:31:07.853Z,13.00
2022-09-25T22:33:36.191Z,9.98
2022-09-25T22:36:06.857Z,16.38
2022-09-25T22:38:35.772Z,16.50
2022-09-25T22:41:04.640Z,11.82
2022-09-25T22:43:33.161Z,13.60
2022-09-25T22:46:01.725Z,13.68
2022-09-25T22:48:30.098Z,11.63
2022-09-25T22:50:59.568Z,10.82
2022-09-25T22:53:29.844Z,12.70
2022-09-25T22:55:58.149Z,12.73
2022-09-25T22:58:26.436Z,12.80
2022-09-25T23:00:54.735Z,11.13
2022-09-25T23:03:24.728Z,12.05
2022-09-25T23:05:53.207Z,13.32
2022-09-25T23:08:21.570Z,12.48
2022-09-25T23:11:06.745Z,14.60
2022-09-25T23:13:35.727Z,10.93
2022-09-25T23:16:05.629Z,14.50
2022-09-25T23:18:34.266Z,14.00
2022-09-25T23:21:02.534Z,12.85
2022-09-25T23:23:30.946Z,10.63
2022-09-25T23:26:05.921Z,16.05
2022-09-25T23:28:34.849Z,12.10
2022-09-25T23:31:07.699Z,11.95
2022-09-25T23:33:36.462Z,17.10
2022-09-25T23:36:05.748Z,13.88
2022-09-25T23:38:34.237Z,14.07
2022-09-25T23:41:04.232Z,9.13
2022-09-25T23:43:32.561Z,13.95
2022-09-25T23:46:00.960Z,11.52
2022-09-25T23:48:29.355Z,11.52
2022-09-25T23:50:57.626Z,10.48
2022-09-25T23:53:26.117Z,13.15
2022-09-25T23:55:54.412Z,14.13
2022-09-25T23:58:25.482Z,12.88
